Millenium Air

Millenium Air Since 1998



 METAR AND TAF INFORMATION

Deprecated: The each() function is deprecated. This message will be suppressed on further calls in /var/www/virtual/milleniumair.it/htdocs/vam/helpers/get_metar.php on line 20
METAR FOR LIPR
ADDS - METARS form results

(0212 UTC 23 September 2021)
Data provider http://aviationweather.gov/metar/data/
 
METAR text: LIPR 230150Z AUTO 28002KT 9999 SCT068/// 14/10 Q1023
Conditions at: LIPR (RIMINI (CIV/IT-A, IT) observed 0150 UTC 23 September 2021
Temperature: 14.0°C (57°F)
Dewpoint: 10.0°C (50°F) [RH = 77%]
Pressure (altimeter): 30.21 inches Hg (1023.0 mb)
Winds: from the W (280 degrees) at 2 MPH (2 knots; 1.0 m/s)
Visibility: 6 or more miles (10+ km)
Ceiling: at least 12,000 feet AGL
Clouds: scattered clouds at 6800 feet AGL
Weather: no significant weather observed at this time

METAR text: LIPR 230120Z AUTO 24003KT 9999 BKN040/// BKN064/// 14/10 Q1023
Conditions at: LIPR (RIMINI (CIV/IT-A, IT) observed 0120 UTC 23 September 2021
Temperature: 14.0°C (57°F)
Dewpoint: 10.0°C (50°F) [RH = 77%]
Pressure (altimeter): 30.21 inches Hg (1023.0 mb)
Winds: from the WSW (240 degrees) at 3 MPH (3 knots; 1.5 m/s)
Visibility: 6 or more miles (10+ km)
Ceiling: 4000 feet AGL
Clouds: broken clouds at 4000 feet AGL
broken clouds at 6400 feet AGL
Weather: no significant weather observed at this time

Forecast for: LIPR (RIMINI (CIV/IT-A, IT)
Text: TAF LIPR 222300Z 2300/2324 09010KT CAVOK
Forecast period: 0000 UTC 23 September 2021 to 0000 UTC 24 September 2021
Forecast type: FROM: standard forecast or significant change
Winds: from the E (90 degrees) at 12 MPH (10 knots; 5.1 m/s)
Visibility: 6 or more miles (10+ km)
Ceiling: unknown
Clouds: missing
Weather: NSW  (no significant weather)

 AIRPORT MAP

 RUNWAY INFORMATION
Runway 13 Runway length 9828 ft Runway width 148 ft
Runway elevation 21 ft Runway displaced threshold 1030 ft Runway heading 128
Runway 31 Runway length 9828 ft Runway width 148 ft
Runway elevation 39 ft Runway displaced threshold 1006 ft Runway heading 308

 AIRPORT FREQUENCIES
Type APP Name ROMAGNA AP Frequency 36.23 MHZ
Type APP Name ROMAGNA AP Frequency 118.15 MHZ
Type GCCD Name GND/CLNC D Frequency 121.6 MHZ
Type TWR Name TWR Frequency 119.1 MHZ

 AIRPORT NEAR NAVIGATION AIDS
Type VORTAC Name Rimini Frequency 116200 KHZ
Type NDB Name Rimini Frequency 335 KHZ